Time;durP1;ratioP1;P1;durP2;ratioP2;P2;SDS_P1;SDS_P2;PMS_P1;PMS_P2;Temp;Humidity;BMP_temperature;BMP_pressure;BME280_temperature;BME280_humidity;BME280_pressure;Samples;Min_cycle;Max_cycle;Signal;HPM_P1;HPM_P2
2022/06/20 00:00:14;;;;;;;3.72;1.70;;;23.00;76.70;;;;;;5034723;28;20059;-73
2022/06/20 00:02:46;;;;;;;4.15;1.40;;;22.90;80.60;;;;;;5051839;28;20124;-70
2022/06/20 00:05:16;;;;;;;4.20;1.42;;;22.90;80.50;;;;;;5050154;28;20052;-75
2022/06/20 00:07:42;;;;;;;4.55;1.30;;;23.10;80.70;;;;;;5063639;28;20105;-69
2022/06/20 00:10:10;;;;;;;3.33;1.23;;;22.90;77.70;;;;;;5053834;28;20388;-70
2022/06/20 00:12:36;;;;;;;3.30;1.20;;;22.90;81.00;;;;;;5053144;28;20134;-70
2022/06/20 00:15:03;;;;;;;4.93;1.33;;;23.10;80.70;;;;;;5053205;28;20100;-68
2022/06/20 00:17:29;;;;;;;4.45;1.60;;;22.90;80.50;;;;;;5018979;28;20041;-70
2022/06/20 00:19:55;;;;;;;3.67;1.25;;;22.90;80.40;;;;;;5020814;28;20053;-72
2022/06/20 00:22:21;;;;;;;4.20;1.30;;;22.90;80.40;;;;;;5028122;28;20129;-70
2022/06/20 00:24:47;;;;;;;5.38;1.48;;;22.90;77.40;;;;;;5056488;28;20116;-69
2022/06/20 00:27:12;;;;;;;4.07;1.23;;;22.70;80.40;;;;;;5055502;28;20040;-71
2022/06/20 00:29:39;;;;;;;3.92;1.27;;;22.70;80.30;;;;;;5048329;28;20053;-73
2022/06/20 00:32:06;;;;;;;3.30;1.30;;;22.80;80.50;;;;;;5054766;28;20432;-70
2022/06/20 00:34:31;;;;;;;5.00;1.40;;;22.90;80.60;;;;;;5057207;28;20048;-71
2022/06/20 00:36:58;;;;;;;6.82;1.73;;;;;;;;;;5037008;28;20124;-69
2022/06/20 00:39:23;;;;;;;3.38;1.20;;;23.10;80.70;;;;;;5055596;28;20045;-74
2022/06/20 00:41:49;;;;;;;5.57;1.60;;;22.70;77.60;;;;;;5054630;28;20129;-71
2022/06/20 00:44:18;;;;;;;8.15;1.50;;;22.70;80.60;;;;;;5020697;28;20175;-73
2022/06/20 00:46:51;;;;;;;3.47;1.20;;;22.80;80.60;;;;;;5038176;28;20056;-75
2022/06/20 00:49:31;;;;;;;4.15;1.48;;;23.00;80.30;;;;;;5051768;28;20041;-72
2022/06/20 00:52:20;;;;;;;2.80;1.17;;;22.90;80.50;;;;;;5036031;28;20076;-76
2022/06/20 00:54:46;;;;;;;4.57;1.27;;;;;;;;;;5055880;28;20057;-70
2022/06/20 00:57:18;;;;;;;3.97;1.10;;;22.70;80.50;;;;;;5054796;28;20045;-67
2022/06/20 00:59:53;;;;;;;3.90;1.35;;;22.90;80.60;;;;;;5019281;28;20138;-71
2022/06/20 01:02:28;;;;;;;4.50;1.33;;;22.70;80.50;;;;;;5035872;28;20044;-69
2022/06/20 01:05:02;;;;;;;3.75;1.30;;;22.80;80.60;;;;;;5013906;28;20047;-70
2022/06/20 01:07:48;;;;;;;4.38;1.40;;;23.00;80.90;;;;;;5037270;28;20123;-71
2022/06/20 01:10:14;;;;;;;4.75;1.40;;;23.00;80.60;;;;;;5011921;28;20049;-77
2022/06/20 01:12:56;;;;;;;4.38;1.50;;;23.00;80.70;;;;;;5049404;28;20070;-78
2022/06/20 01:15:25;;;;;;;3.65;1.50;;;22.80;80.70;;;;;;5034432;28;20437;-76
2022/06/20 01:17:51;;;;;;;4.70;1.40;;;22.90;80.80;;;;;;5066345;28;20049;-68
2022/06/20 01:20:46;;;;;;;3.22;1.30;;;23.00;80.80;;;;;;5048936;28;20049;-67
2022/06/20 01:23:45;;;;;;;3.78;1.30;;;22.80;80.90;;;;;;5028273;28;20124;-71
2022/06/20 01:26:51;;;;;;;4.18;1.30;;;22.80;80.90;;;;;;5032664;28;20049;-70
2022/06/20 01:29:17;;;;;;;5.82;1.35;;;22.90;80.90;;;;;;4984866;28;20061;-68
2022/06/20 01:31:45;;;;;;;4.30;1.35;;;22.90;80.90;;;;;;4972479;28;20038;-69
2022/06/20 01:34:13;;;;;;;5.22;1.23;;;22.60;79.00;;;;;;4972589;28;20150;-68
2022/06/20 01:39:24;;;;;;;4.05;1.30;;;22.60;80.90;;;;;;4960552;28;20130;-71
2022/06/20 01:44:39;;;;;;;2.75;1.15;;;22.80;80.90;;;;;;4968707;28;20106;-67
2022/06/20 01:47:05;;;;;;;5.88;1.65;;;22.70;81.20;;;;;;4975358;28;20081;-71
2022/06/20 01:49:31;;;;;;;2.55;1.17;;;22.80;81.00;;;;;;4992573;28;20571;-70
2022/06/20 01:52:01;;;;;;;4.50;1.58;;;22.60;77.50;;;;;;4957717;28;20061;-69
2022/06/20 01:54:29;;;;;;;4.05;1.33;;;22.80;80.80;;;;;;4941940;28;20075;-67
2022/06/20 01:56:55;;;;;;;5.05;1.65;;;;;;;;;;4977596;28;20536;-69
2022/06/20 01:59:34;;;;;;;4.15;1.45;;;22.60;80.80;;;;;;4979249;28;20431;-75
2022/06/20 02:02:00;;;;;;;3.35;1.40;;;22.70;80.90;;;;;;5053391;28;20053;-68
2022/06/20 02:04:29;;;;;;;4.10;1.30;;;22.60;80.80;;;;;;5053611;28;20443;-69
2022/06/20 02:06:55;;;;;;;5.10;1.60;;;;;;;;;;5035588;28;20059;-68
2022/06/20 02:09:21;;;;;;;5.22;1.40;;;22.80;80.90;;;;;;5053845;28;20084;-71
2022/06/20 02:11:47;;;;;;;3.65;1.20;;;22.60;80.70;;;;;;5051566;28;20076;-66
2022/06/20 02:14:18;;;;;;;4.53;1.67;;;22.80;80.80;;;;;;5034723;28;20045;-71
2022/06/20 02:16:46;;;;;;;4.82;1.40;;;22.80;79.50;;;;;;5035841;28;20454;-71
2022/06/20 02:19:13;;;;;;;4.82;1.45;;;22.30;81.00;;;;;;5001483;28;20491;-69
2022/06/20 02:21:40;;;;;;;4.85;1.40;;;;;;;;;;5019544;28;20072;-69
2022/06/20 02:24:16;;;;;;;4.82;1.30;;;22.80;80.90;;;;;;5049957;28;20107;-73
2022/06/20 02:26:43;;;;;;;4.43;1.40;;;22.60;80.80;;;;;;5047647;28;20052;-71
2022/06/20 02:29:23;;;;;;;3.75;1.45;;;22.60;80.70;;;;;;5009286;28;20057;-70
2022/06/20 02:32:14;;;;;;;3.67;1.20;;;22.80;80.70;;;;;;5033260;28;20056;-68
2022/06/20 02:34:41;;;;;;;2.53;1.20;;;;;;;;;;5015617;28;20057;-70
2022/06/20 02:37:10;;;;;;;5.88;1.42;;;22.70;80.00;;;;;;5029463;28;20499;-71
2022/06/20 02:39:39;;;;;;;5.72;1.77;;;22.80;78.30;;;;;;5033564;28;20449;-75
2022/06/20 02:42:10;;;;;;;4.72;1.40;;;22.50;80.50;;;;;;5050660;28;20045;-71
2022/06/20 02:44:37;;;;;;;4.65;1.60;;;22.40;80.50;;;;;;5015723;28;20538;-70
2022/06/20 02:47:04;;;;;;;4.00;1.20;;;22.50;80.50;;;;;;5015205;28;20041;-70
2022/06/20 02:49:30;;;;;;;3.15;1.30;;;22.50;80.70;;;;;;5034090;28;20051;-67
2022/06/20 02:51:55;;;;;;;4.10;1.30;;;22.40;77.60;;;;;;5049675;28;20419;-74
2022/06/20 02:54:25;;;;;;;2.58;1.25;;;22.70;80.60;;;;;;5051042;28;20178;-70
2022/06/20 02:56:58;;;;;;;5.35;1.60;;;22.60;78.00;;;;;;5013403;28;20087;-66
2022/06/20 02:59:29;;;;;;;4.60;1.85;;;22.40;80.60;;;;;;5011176;28;20478;-71
2022/06/20 03:02:01;;;;;;;2.78;1.35;;;22.50;80.70;;;;;;5031938;28;20044;-71
2022/06/20 03:04:27;;;;;;;2.85;1.20;;;22.50;80.50;;;;;;5001723;28;20534;-67
2022/06/20 03:06:59;;;;;;;3.92;1.33;;;22.50;81.20;;;;;;5046590;28;20207;-72
2022/06/20 03:09:31;;;;;;;4.93;1.48;;;22.50;80.70;;;;;;5006882;28;20125;-75
2022/06/20 03:11:57;;;;;;;4.45;1.27;;;;;;;;;;5017952;28;20103;-75
2022/06/20 03:14:33;;;;;;;4.18;1.30;;;22.60;75.80;;;;;;5036221;28;20053;-71
2022/06/20 03:16:59;;;;;;;4.72;1.30;;;;;;;;;;5017896;28;20055;-69
2022/06/20 03:19:27;;;;;;;4.57;1.67;;;22.50;77.30;;;;;;5049464;28;20060;-68
2022/06/20 03:21:54;;;;;;;3.80;1.50;;;22.40;80.40;;;;;;5035406;28;20124;-71
2022/06/20 03:24:21;;;;;;;3.50;1.27;;;22.50;80.50;;;;;;5019012;28;20041;-70
2022/06/20 03:26:47;;;;;;;7.90;1.60;;;22.40;80.40;;;;;;5034902;28;20059;-74
2022/06/20 03:29:14;;;;;;;4.82;1.40;;;22.50;80.50;;;;;;5052400;28;20045;-71
2022/06/20 03:31:40;;;;;;;5.22;1.45;;;22.60;80.50;;;;;;5033001;28;20049;-69
2022/06/20 03:34:07;;;;;;;4.65;1.20;;;22.50;80.60;;;;;;5034848;28;20107;-69
2022/06/20 03:36:33;;;;;;;3.88;1.20;;;22.40;77.60;;;;;;5018297;28;20411;-73
2022/06/20 03:38:58;;;;;;;4.05;1.20;;;22.40;80.30;;;;;;5049055;28;20051;-71
2022/06/20 03:41:26;;;;;;;4.10;1.45;;;22.40;80.70;;;;;;5051189;28;20398;-70
2022/06/20 03:43:56;;;;;;;3.22;1.30;;;22.40;77.70;;;;;;5034697;28;20045;-70
2022/06/20 03:46:25;;;;;;;5.03;1.60;;;22.30;80.30;;;;;;5019808;28;20082;-71
2022/06/20 03:49:07;;;;;;;4.03;1.30;;;22.20;80.30;;;;;;5018648;28;20088;-68
2022/06/20 03:51:37;;;;;;;4.30;1.70;;;22.50;80.70;;;;;;5018658;28;20052;-70
2022/06/20 03:54:08;;;;;;;4.85;1.60;;;22.30;80.20;;;;;;5033828;28;20077;-74
2022/06/20 03:56:36;;;;;;;2.53;1.10;;;22.30;80.20;;;;;;5019627;28;20048;-67
2022/06/20 03:59:13;;;;;;;4.32;1.30;;;22.40;80.10;;;;;;5035020;28;20445;-70
2022/06/20 04:02:01;;;;;;;3.58;1.20;;;22.30;80.20;;;;;;5013219;28;20041;-72
2022/06/20 04:04:48;;;;;;;3.83;1.58;;;22.50;80.10;;;;;;5034676;28;20074;-66
2022/06/20 04:07:27;;;;;;;1.88;0.80;;;22.50;80.00;;;;;;5034759;28;20057;-71
2022/06/20 04:13:02;;;;;;;5.88;1.55;;;22.60;77.80;;;;;;5022716;28;20120;-70
2022/06/20 04:15:39;;;;;;;3.38;1.30;;;22.70;78.10;;;;;;5051594;28;20130;-66
2022/06/20 04:18:29;;;;;;;2.67;1.40;;;22.60;79.80;;;;;;5033690;28;20045;-71
2022/06/20 04:20:58;;;;;;;3.58;1.48;;;22.70;79.80;;;;;;5028832;28;20568;-66
2022/06/20 04:23:56;;;;;;;4.40;1.40;;;22.60;79.90;;;;;;5060270;28;20084;-66
2022/06/20 04:26:26;;;;;;;5.47;1.35;;;22.40;75.70;;;;;;5046460;28;20041;-69
2022/06/20 04:29:01;;;;;;;3.92;1.75;;;22.50;76.40;;;;;;5045107;28;20049;-69
2022/06/20 04:31:42;;;;;;;4.25;1.23;;;22.70;79.60;;;;;;5019673;28;20044;-67
2022/06/20 04:34:37;;;;;;;4.40;1.38;;;22.60;79.50;;;;;;5050581;28;20057;-73
2022/06/20 04:37:23;;;;;;;4.78;1.73;;;22.60;79.50;;;;;;5033448;28;20060;-72
2022/06/20 04:40:15;;;;;;;3.33;1.38;;;22.50;80.00;;;;;;5035163;28;20049;-75
2022/06/20 04:42:45;;;;;;;5.35;1.38;;;22.70;79.60;;;;;;5047817;28;20469;-71
2022/06/20 04:45:12;;;;;;;5.13;2.25;;;22.70;79.50;;;;;;5045902;28;20411;-71
2022/06/20 04:48:08;;;;;;;3.58;1.50;;;22.70;79.40;;;;;;5031688;28;20060;-71
2022/06/20 04:50:34;;;;;;;4.35;1.45;;;22.90;75.50;;;;;;5049739;28;20403;-69
2022/06/20 04:53:09;;;;;;;5.82;1.40;;;23.00;76.60;;;;;;5016110;28;20044;-66
2022/06/20 04:55:35;;;;;;;5.13;1.48;;;23.20;79.10;;;;;;5031511;28;20045;-72
2022/06/20 04:58:02;;;;;;;3.72;1.25;;;23.10;76.20;;;;;;5038147;28;20064;-70
2022/06/20 05:00:36;;;;;;;2.85;1.20;;;23.60;78.50;;;;;;5038180;28;20048;-73
2022/06/20 05:03:01;;;;;;;3.25;1.30;;;23.60;77.90;;;;;;5045975;28;20088;-71
2022/06/20 05:05:29;;;;;;;4.88;1.55;;;24.00;77.80;;;;;;5035629;28;20451;-71
2022/06/20 05:07:55;;;;;;;3.60;1.30;;;23.80;75.30;;;;;;5021086;28;20052;-78
2022/06/20 05:10:33;;;;;;;4.28;1.30;;;24.40;74.90;;;;;;5054470;28;20053;-73
2022/06/20 05:13:10;;;;;;;4.00;1.40;;;24.30;73.30;;;;;;5020568;28;20056;-72
2022/06/20 05:15:40;;;;;;;5.22;1.73;;;24.50;74.60;;;;;;5017488;28;20083;-75
2022/06/20 05:18:16;;;;;;;3.22;1.50;;;24.60;72.70;;;;;;5037227;28;20066;-75
2022/06/20 05:20:41;;;;;;;5.80;1.40;;;24.70;72.50;;;;;;5054622;28;20084;-75
2022/06/20 05:23:42;;;;;;;6.38;2.28;;;24.70;73.40;;;;;;5028347;28;20076;-73
2022/06/20 05:26:10;;;;;;;3.13;1.60;;;25.00;72.10;;;;;;5033577;28;20455;-75
2022/06/20 05:28:37;;;;;;;4.53;1.77;;;24.90;73.60;;;;;;5049017;28;20068;-72
2022/06/20 05:31:03;;;;;;;4.53;1.95;;;25.00;73.10;;;;;;5034139;28;20045;-67
2022/06/20 05:33:28;;;;;;;4.60;1.95;;;25.30;72.80;;;;;;5020907;28;20053;-67
2022/06/20 05:36:26;;;;;;;4.43;1.85;;;25.10;72.50;;;;;;5044625;28;20044;-70
2022/06/20 05:38:59;;;;;;;6.25;2.08;;;25.40;71.10;;;;;;5052666;28;20056;-70
2022/06/20 05:41:25;;;;;;;4.82;1.90;;;25.20;72.60;;;;;;5003737;28;20128;-73
2022/06/20 05:43:50;;;;;;;4.97;1.73;;;25.70;72.30;;;;;;5037016;28;20125;-71
2022/06/20 05:46:23;;;;;;;3.40;1.63;;;25.40;72.30;;;;;;5038094;28;20049;-69
2022/06/20 05:48:55;;;;;;;5.78;2.03;;;25.70;72.30;;;;;;5026174;28;20049;-67
2022/06/20 05:51:22;;;;;;;6.30;1.98;;;25.80;72.80;;;;;;5002013;28;20045;-69
2022/06/20 05:53:57;;;;;;;4.68;1.63;;;25.90;72.80;;;;;;5054282;28;20102;-68
2022/06/20 05:56:31;;;;;;;3.75;1.58;;;25.90;71.10;;;;;;5053523;28;20395;-66
2022/06/20 05:58:56;;;;;;;4.90;1.70;;;25.80;74.80;;;;;;5035341;28;20052;-70
2022/06/20 06:01:30;;;;;;;4.88;1.75;;;26.10;72.40;;;;;;5019937;28;20080;-66
2022/06/20 06:04:22;;;;;;;4.05;1.83;;;25.80;72.30;;;;;;5022461;28;20080;-66
2022/06/20 06:06:54;;;;;;;5.25;1.80;;;25.80;70.60;;;;;;5037634;28;20041;-69
2022/06/20 06:09:48;;;;;;;7.05;2.22;;;25.80;70.60;;;;;;5034127;28;20495;-70
2022/06/20 06:12:21;;;;;;;4.55;1.80;;;26.10;70.80;;;;;;4997626;28;20057;-68
2022/06/20 06:14:52;;;;;;;3.40;1.50;;;25.80;72.40;;;;;;4968742;28;20119;-68
2022/06/20 06:17:24;;;;;;;3.60;1.60;;;25.70;72.70;;;;;;4999765;28;20057;-66
2022/06/20 06:19:53;;;;;;;4.95;1.70;;;25.70;71.90;;;;;;5007516;28;20065;-69
2022/06/20 06:22:19;;;;;;;4.78;1.90;;;25.40;75.50;;;;;;4997472;28;20073;-66
2022/06/20 06:24:46;;;;;;;5.57;1.90;;;25.30;72.20;;;;;;5015364;28;20663;-67
2022/06/20 06:27:20;;;;;;;4.47;1.80;;;25.20;72.90;;;;;;5000220;28;20380;-67
2022/06/20 06:29:51;;;;;;;5.93;1.80;;;25.30;76.10;;;;;;4981950;28;20046;-72
2022/06/20 06:32:24;;;;;;;5.10;1.83;;;25.20;71.80;;;;;;4980562;28;20139;-68
2022/06/20 06:35:05;;;;;;;5.57;1.60;;;25.40;73.80;;;;;;5011812;28;20099;-66
2022/06/20 06:37:35;;;;;;;6.63;2.08;;;25.10;72.30;;;;;;5030775;28;20056;-66
2022/06/20 06:40:10;;;;;;;5.72;1.88;;;25.10;73.80;;;;;;4983690;28;20069;-66
2022/06/20 06:42:36;;;;;;;4.78;1.90;;;25.20;76.40;;;;;;5012563;28;20060;-66
2022/06/20 06:45:02;;;;;;;4.13;1.90;;;24.90;73.20;;;;;;4996515;28;20511;-66
2022/06/20 06:47:40;;;;;;;5.45;1.80;;;25.20;73.30;;;;;;4980530;28;20038;-66
2022/06/20 06:50:33;;;;;;;5.43;1.90;;;25.40;72.50;;;;;;5029889;28;20099;-68
2022/06/20 06:53:03;;;;;;;5.13;1.90;;;25.40;72.80;;;;;;5024827;28;20045;-76
2022/06/20 06:55:39;;;;;;;4.80;2.08;;;25.50;74.00;;;;;;5052903;28;20049;-66
2022/06/20 06:58:35;;;;;;;5.43;1.80;;;25.40;72.30;;;;;;5037869;28;20115;-68
2022/06/20 07:01:11;;;;;;;4.13;1.85;;;25.30;73.90;;;;;;5050968;28;20053;-65
2022/06/20 07:03:42;;;;;;;5.93;2.00;;;25.60;73.90;;;;;;5033722;28;20072;-76
2022/06/20 07:06:24;;;;;;;4.25;1.90;;;25.70;73.70;;;;;;5052538;28;20500;-76
2022/06/20 07:09:00;;;;;;;5.80;1.98;;;25.60;72.50;;;;;;5052180;28;20059;-76
2022/06/20 07:11:26;;;;;;;4.45;1.98;;;25.50;72.40;;;;;;5021117;28;20055;-75
2022/06/20 07:14:01;;;;;;;6.45;2.20;;;25.40;73.70;;;;;;5048373;28;20394;-68
2022/06/20 07:16:51;;;;;;;5.88;1.90;;;25.40;74.20;;;;;;5043078;28;20045;-76
2022/06/20 07:19:17;;;;;;;4.88;2.22;;;25.40;73.20;;;;;;5034343;28;20053;-76
2022/06/20 07:21:43;;;;;;;6.03;1.80;;;25.40;74.40;;;;;;5019650;28;20064;-77
2022/06/20 07:24:13;;;;;;;4.75;2.00;;;25.60;77.10;;;;;;5048643;28;20049;-77
2022/06/20 07:26:51;;;;;;;6.90;1.90;;;25.40;74.20;;;;;;5069230;28;20134;-77
2022/06/20 07:29:20;;;;;;;6.45;2.50;;;25.30;72.60;;;;;;5068130;28;20402;-70
2022/06/20 07:31:49;;;;;;;5.85;2.35;;;25.50;74.20;;;;;;5064193;28;20059;-69
2022/06/20 07:34:32;;;;;;;7.68;2.00;;;25.30;77.10;;;;;;5028621;28;20057;-70
2022/06/20 07:37:02;;;;;;;;;;;25.60;72.90;;;;;;5050097;28;20048;-69
2022/06/20 07:39:28;;;;;;;6.43;2.53;;;25.50;74.50;;;;;;5051775;28;19921;-81
2022/06/20 07:42:06;;;;;;;5.75;2.38;;;25.30;74.00;;;;;;5051966;28;20099;-76
2022/06/20 07:44:37;;;;;;;7.22;2.55;;;25.10;74.30;;;;;;5017425;28;20052;-73
2022/06/20 07:47:08;;;;;;;6.63;2.30;;;25.20;74.40;;;;;;5051623;28;20055;-77
2022/06/20 07:49:42;;;;;;;7.13;2.53;;;25.10;74.50;;;;;;5035927;28;20100;-78
2022/06/20 07:52:19;;;;;;;8.73;2.65;;;24.90;74.40;;;;;;5038526;28;20052;-76
2022/06/20 07:54:48;;;;;;;7.53;2.78;;;25.10;73.20;;;;;;5032472;28;20065;-78
2022/06/20 07:57:23;;;;;;;5.90;2.15;;;25.00;74.40;;;;;;5050256;28;20057;-77
2022/06/20 07:59:50;;;;;;;6.18;2.33;;;25.10;75.10;;;;;;5034687;28;20403;-73
2022/06/20 08:02:31;;;;;;;5.82;2.67;;;25.10;74.30;;;;;;5068966;28;20041;-81
2022/06/20 08:04:58;;;;;;;5.45;2.47;;;25.30;74.00;;;;;;5052416;28;20099;-80
2022/06/20 08:07:47;;;;;;;6.60;2.50;;;25.30;73.80;;;;;;5049851;28;20036;-67
2022/06/20 08:10:51;;;;;;;7.20;2.53;;;25.40;76.60;;;;;;5046799;28;20037;-75
2022/06/20 08:13:24;;;;;;;4.97;2.20;;;25.40;72.80;;;;;;4975181;28;20060;-66
2022/06/20 08:16:13;;;;;;;5.70;2.20;;;25.30;74.10;;;;;;4959387;28;20061;-66
2022/06/20 08:18:38;;;;;;;5.80;2.20;;;25.50;77.30;;;;;;4975938;28;20050;-66
2022/06/20 08:21:17;;;;;;;7.18;2.80;;;25.40;73.90;;;;;;4969164;28;20042;-79
2022/06/20 08:23:57;;;;;;;9.43;2.70;;;25.70;72.80;;;;;;4960376;28;20508;-67
2022/06/20 08:26:33;;;;;;;7.85;2.45;;;25.70;74.20;;;;;;4975256;28;20408;-66
2022/06/20 08:29:01;;;;;;;8.50;2.88;;;25.60;74.00;;;;;;4987860;28;20062;-69
2022/06/20 08:31:35;;;;;;;6.95;3.00;;;25.60;73.80;;;;;;4974954;28;20058;-68
2022/06/20 08:34:17;;;;;;;6.63;2.75;;;26.00;74.40;;;;;;4963068;28;20054;-69
2022/06/20 08:36:56;;;;;;;7.47;2.50;;;26.00;72.80;;;;;;4983603;28;20053;-69
2022/06/20 08:39:48;;;;;;;8.32;2.80;;;25.70;72.40;;;;;;4994749;28;20455;-68
2022/06/20 08:42:43;;;;;;;6.50;2.78;;;26.00;72.40;;;;;;4972669;28;20061;-83
2022/06/20 08:45:20;;;;;;;7.05;3.10;;;25.90;72.30;;;;;;4979462;28;20501;-83
2022/06/20 08:48:16;;;;;;;6.72;2.90;;;26.20;73.30;;;;;;4965795;28;20069;-69
2022/06/20 08:51:13;;;;;;;7.80;2.70;;;26.10;72.10;;;;;;5035357;28;20053;-77
2022/06/20 08:54:05;;;;;;;7.18;2.78;;;26.10;71.90;;;;;;4974544;28;20066;-83
2022/06/20 08:56:40;;;;;;;9.45;3.45;;;26.40;73.70;;;;;;4975618;28;20063;-82
2022/06/20 08:59:14;;;;;;;6.32;2.53;;;26.50;71.80;;;;;;4971419;28;20090;-76
2022/06/20 09:02:21;;;;;;;6.22;2.70;;;26.30;73.40;;;;;;4983529;28;20054;-70
2022/06/20 09:05:01;;;;;;;7.50;3.05;;;26.20;71.90;;;;;;4989202;28;20065;-70
2022/06/20 09:07:43;;;;;;;6.60;2.90;;;23.80;70.40;;;;;;4958976;28;20497;-68
2022/06/20 09:10:20;;;;;;;9.65;3.10;;;26.40;72.20;;;;;;4985077;28;20081;-68
2022/06/20 09:13:15;;;;;;;7.28;2.55;;;26.20;73.70;;;;;;4943497;28;20398;-75
2022/06/20 09:16:20;;;;;;;6.55;2.92;;;26.10;76.70;;;;;;4961829;28;20039;-67
2022/06/20 09:18:55;;;;;;;6.82;2.60;;;26.20;72.50;;;;;;4939986;29;20437;-67
2022/06/20 09:21:46;;;;;;;5.63;2.70;;;26.00;72.30;;;;;;4935340;29;20099;-68
2022/06/20 09:24:36;;;;;;;7.55;2.67;;;26.00;72.40;;;;;;4950233;28;20043;-68
2022/06/20 09:27:15;;;;;;;8.35;3.10;;;26.20;72.40;;;;;;4921036;29;20040;-75
2022/06/20 09:29:41;;;;;;;6.47;2.92;;;26.20;73.80;;;;;;4942700;28;20051;-67
2022/06/20 09:44:15;;;;;;;5.63;2.30;;;25.80;72.30;;;;;;4986471;28;20042;-70
2022/06/20 09:50:31;;;;;;;6.47;2.17;;;25.90;72.70;;;;;;4993647;28;20042;-69
2022/06/20 09:52:57;;;;;;;5.20;2.30;;;25.80;72.30;;;;;;4976373;28;20621;-70
2022/06/20 09:55:43;;;;;;;7.47;2.40;;;26.00;73.50;;;;;;5004873;28;20056;-72
2022/06/20 09:58:45;;;;;;;5.28;2.22;;;25.70;76.50;;;;;;5037341;28;20048;-70
2022/06/20 10:01:23;;;;;;;5.95;2.40;;;25.80;74.40;;;;;;5054272;28;20067;-68
2022/06/20 10:04:24;;;;;;;5.43;2.17;;;25.70;72.40;;;;;;5054432;28;20048;-69
2022/06/20 10:07:12;;;;;;;5.93;2.53;;;25.70;72.70;;;;;;5036705;28;20061;-68
2022/06/20 10:09:50;;;;;;;6.00;2.47;;;25.80;74.40;;;;;;5068115;28;20183;-67
2022/06/20 10:12:29;;;;;;;5.25;1.85;;;25.70;74.20;;;;;;5041899;28;20037;-75
2022/06/20 10:15:03;;;;;;;4.38;2.03;;;25.80;72.60;;;;;;5035075;28;20048;-73
2022/06/20 10:17:44;;;;;;;4.65;2.00;;;26.10;72.50;;;;;;5031364;28;20147;-70
2022/06/20 10:20:40;;;;;;;5.32;2.47;;;25.80;74.20;;;;;;5060909;28;20132;-69
2022/06/20 10:23:16;;;;;;;5.13;2.35;;;26.00;73.00;;;;;;5037126;28;20056;-83
2022/06/20 10:25:52;;;;;;;6.63;2.30;;;25.60;72.70;;;;;;5045899;28;20041;-68
2022/06/20 10:28:29;;;;;;;5.22;2.40;;;25.70;74.30;;;;;;5051662;28;20049;-69
2022/06/20 10:30:57;;;;;;;6.35;2.00;;;25.70;72.70;;;;;;5036876;28;20483;-80
2022/06/20 10:34:17;;;;;;;4.30;1.90;;;25.70;73.90;;;;;;5036794;28;20056;-74
2022/06/20 10:36:52;;;;;;;5.57;2.13;;;25.50;72.50;;;;;;4976085;28;20054;-67
2022/06/20 10:39:24;;;;;;;4.70;2.10;;;25.70;72.70;;;;;;4961308;28;20046;-72
2022/06/20 10:41:53;;;;;;;5.38;2.13;;;25.80;74.00;;;;;;4958802;28;20049;-66
2022/06/20 10:44:42;;;;;;;5.60;2.28;;;25.70;73.90;;;;;;4976379;28;20109;-68
2022/06/20 10:47:26;;;;;;;4.72;2.15;;;25.60;73.90;;;;;;4952411;29;20050;-67
2022/06/20 10:50:19;;;;;;;4.07;1.92;;;25.70;72.80;;;;;;4936861;29;20047;-67
2022/06/20 10:53:09;;;;;;;5.60;2.20;;;25.50;73.00;;;;;;4931617;29;20061;-67
2022/06/20 10:56:06;;;;;;;5.38;2.25;;;25.70;72.80;;;;;;4920249;29;20052;-67
2022/06/20 10:58:55;;;;;;;6.55;2.50;;;25.40;72.80;;;;;;4917080;29;20047;-67
2022/06/20 11:01:28;;;;;;;5.10;2.00;;;25.70;74.70;;;;;;4919561;29;20059;-67
2022/06/20 11:04:11;;;;;;;4.53;1.80;;;25.80;74.40;;;;;;4912333;29;20064;-67
2022/06/20 11:07:01;;;;;;;5.30;2.08;;;25.80;73.10;;;;;;4922842;29;20063;-67
2022/06/20 11:09:33;;;;;;;4.38;2.10;;;25.70;77.40;;;;;;4926036;29;20051;-81
2022/06/20 11:12:01;;;;;;;;;;;25.70;74.40;;;;;;4940590;28;20055;-67
2022/06/20 11:14:39;;;;;;;4.03;1.73;;;25.70;74.70;;;;;;4958117;28;20019;-71
2022/06/20 11:17:28;;;;;;;5.13;2.25;;;25.90;73.10;;;;;;4973424;28;20401;-67
2022/06/20 11:20:20;;;;;;;5.95;2.20;;;26.00;74.80;;;;;;4937867;29;20502;-67
2022/06/20 11:23:16;;;;;;;4.57;1.90;;;26.00;74.40;;;;;;4899908;29;20068;-68
2022/06/20 11:26:03;;;;;;;4.53;1.90;;;25.80;73.20;;;;;;4917569;29;20066;-68
2022/06/20 11:28:48;;;;;;;3.90;1.85;;;25.90;73.30;;;;;;4932911;29;20051;-67
2022/06/20 11:31:14;;;;;;;5.22;2.00;;;26.00;74.70;;;;;;4923446;29;20450;-80
2022/06/20 11:34:03;;;;;;;4.50;2.25;;;25.90;74.10;;;;;;4929489;29;20109;-75
2022/06/20 11:37:03;;;;;;;6.53;1.88;;;26.10;78.00;;;;;;4937830;29;20179;-80
2022/06/20 11:39:43;;;;;;;3.88;1.90;;;25.70;73.40;;;;;;4934413;29;20051;-68
2022/06/20 11:42:14;;;;;;;4.68;1.90;;;25.80;73.00;;;;;;4936732;29;20094;-67
2022/06/20 11:44:55;;;;;;;5.53;1.90;;;25.90;73.10;;;;;;4933743;29;20087;-68
2022/06/20 11:47:24;;;;;;;5.05;1.85;;;25.90;73.20;;;;;;4924781;29;20570;-80
2022/06/20 11:50:03;;;;;;;4.70;1.90;;;25.90;74.60;;;;;;4928831;29;20149;-66
2022/06/20 11:52:50;;;;;;;13.10;2.30;;;26.00;77.40;;;;;;4921477;29;20541;-67
2022/06/20 11:55:24;;;;;;;8.18;2.10;;;25.90;73.30;;;;;;4936442;29;20051;-67
2022/06/20 11:58:16;;;;;;;7.78;3.08;;;25.70;73.10;;;;;;4946305;28;20321;-67
2022/06/20 12:00:45;;;;;;;10.30;2.47;;;25.90;73.30;;;;;;5034450;28;20118;-66
2022/06/20 12:03:46;;;;;;;10.32;3.47;;;25.70;74.40;;;;;;5050177;28;20048;-67
2022/06/20 12:06:17;;;;;;;5.82;2.38;;;26.00;73.50;;;;;;5020383;28;20096;-66
2022/06/20 12:09:10;;;;;;;9.57;2.13;;;25.70;74.60;;;;;;4996678;28;20077;-68
2022/06/20 12:11:41;;;;;;;9.48;2.67;;;25.70;73.70;;;;;;4983880;28;20119;-68
2022/06/20 12:33:40;;;;;;;11.88;4.68;;;25.80;71.90;;;;;;4969181;28;20082;-65
2022/06/20 12:36:15;;;;;;;12.73;4.88;;;25.50;73.20;;;;;;5000047;28;20558;-69
2022/06/20 12:38:52;;;;;;;14.27;3.80;;;25.80;71.70;;;;;;5015321;28;20053;-70
2022/06/20 12:41:19;;;;;;;11.52;4.13;;;25.70;73.00;;;;;;4966763;28;20051;-68
2022/06/20 12:43:48;;;;;;;10.13;3.92;;;25.90;73.00;;;;;;5049433;28;20461;-70
2022/06/20 12:46:35;;;;;;;18.35;4.57;;;25.70;72.80;;;;;;5049386;28;20107;-66
2022/06/20 12:49:17;;;;;;;19.33;4.10;;;25.80;72.00;;;;;;5051968;28;20045;-66
2022/06/20 12:52:02;;;;;;;17.58;4.13;;;25.70;73.60;;;;;;5035297;28;20060;-65
2022/06/20 12:54:52;;;;;;;20.92;4.40;;;25.70;73.80;;;;;;5034716;28;20056;-66
2022/06/20 12:57:23;;;;;;;16.67;4.15;;;26.00;72.30;;;;;;5044259;28;20046;-65
2022/06/20 12:59:55;;;;;;;11.90;3.58;;;26.00;71.90;;;;;;5051744;28;20514;-65
2022/06/20 13:02:58;;;;;;;14.77;3.33;;;26.10;72.10;;;;;;5049375;28;20056;-66
2022/06/20 13:05:41;;;;;;;12.73;3.08;;;25.80;72.50;;;;;;5051748;28;20053;-65
2022/06/20 13:08:22;;;;;;;16.65;3.03;;;26.00;76.80;;;;;;5034850;28;20057;-65
2022/06/20 13:11:11;;;;;;;8.95;3.00;;;25.80;72.70;;;;;;5031751;28;20107;-65
2022/06/20 13:13:49;;;;;;;10.90;2.95;;;25.80;74.30;;;;;;5043648;28;20053;-66
2022/06/20 13:16:15;;;;;;;8.85;3.00;;;25.50;72.20;;;;;;5031776;28;20136;-65
2022/06/20 13:19:11;;;;;;;12.23;3.25;;;25.90;73.60;;;;;;5049690;28;20139;-66
2022/06/20 13:21:48;;;;;;;6.00;2.00;;;25.60;72.70;;;;;;5053758;28;20178;-66
2022/06/20 13:24:51;;;;;;;6.72;2.42;;;25.50;74.10;;;;;;5021684;28;20403;-66
2022/06/20 13:27:28;;;;;;;8.57;2.67;;;25.60;72.70;;;;;;4975156;28;20087;-65
2022/06/20 13:30:00;;;;;;;5.13;2.17;;;25.80;74.50;;;;;;4990793;28;20055;-67
2022/06/20 13:32:30;;;;;;;6.33;2.30;;;25.50;72.40;;;;;;4992116;28;20050;-66
2022/06/20 13:34:59;;;;;;;9.85;2.30;;;25.80;74.00;;;;;;4961731;28;20086;-77
2022/06/20 13:37:31;;;;;;;12.48;2.90;;;25.60;73.60;;;;;;4990602;28;21243;-90
2022/06/20 13:40:18;;;;;;;7.25;2.30;;;25.60;74.20;;;;;;4993193;28;20054;-66
2022/06/20 13:43:03;;;;;;;8.25;2.45;;;25.70;72.80;;;;;;4997830;28;20058;-65
2022/06/20 13:45:32;;;;;;;8.00;2.25;;;25.40;72.50;;;;;;4963153;28;20066;-65
2022/06/20 13:48:21;;;;;;;10.70;3.00;;;25.50;77.10;;;;;;4963630;28;20057;-65
2022/06/20 13:51:21;;;;;;;5.68;2.10;;;25.50;73.00;;;;;;4973628;28;20156;-65
2022/06/20 13:54:03;;;;;;;7.30;2.30;;;25.80;77.10;;;;;;4997731;28;20456;-85
2022/06/20 13:56:56;;;;;;;5.75;2.38;;;25.60;73.00;;;;;;4967639;28;20050;-90
2022/06/20 13:59:29;;;;;;;6.63;2.25;;;25.70;73.00;;;;;;4997063;28;20119;-70
2022/06/20 14:01:59;;;;;;;5.45;1.85;;;25.70;74.50;;;;;;4975943;28;20118;-65
2022/06/20 14:04:26;;;;;;;6.40;2.10;;;25.90;72.70;;;;;;5004318;28;20106;-65
2022/06/20 14:07:00;;;;;;;6.35;2.08;;;25.90;77.50;;;;;;5052664;28;20044;-67
2022/06/20 14:09:36;;;;;;;7.38;2.28;;;25.50;72.70;;;;;;5035363;28;20049;-67
2022/06/20 14:12:04;;;;;;;5.38;1.83;;;25.60;77.50;;;;;;5053572;28;20086;-69
2022/06/20 14:14:32;;;;;;;6.82;2.22;;;26.00;74.40;;;;;;5037500;28;20549;-65
2022/06/20 14:17:28;;;;;;;7.43;2.25;;;25.40;73.90;;;;;;5037869;28;20053;-66
2022/06/20 14:19:57;;;;;;;5.93;1.95;;;25.30;74.80;;;;;;4995536;28;20057;-68